createdAt,value
2022-11-26T00:02:00.596Z,6.28
2022-11-26T00:04:28.365Z,6.32
2022-11-26T00:06:56.092Z,6.27
2022-11-26T00:09:26.092Z,6.35
2022-11-26T00:11:53.745Z,6.41
2022-11-26T00:14:22.864Z,6.40
2022-11-26T00:16:50.628Z,6.42
2022-11-26T00:19:18.271Z,6.40
2022-11-26T00:21:46.033Z,6.41
2022-11-26T00:24:26.372Z,6.45
2022-11-26T00:26:54.871Z,6.46
2022-11-26T00:29:23.984Z,6.51
2022-11-26T00:31:51.744Z,6.50
2022-11-26T00:34:19.519Z,6.53
2022-11-26T00:36:48.315Z,6.52
2022-11-26T00:39:19.162Z,6.53
2022-11-26T00:41:50.891Z,6.56
2022-11-26T00:44:21.741Z,6.58
2022-11-26T00:46:51.576Z,6.59
2022-11-26T00:49:20.803Z,6.58
2022-11-26T00:51:48.884Z,6.60
2022-11-26T00:54:19.576Z,6.55
2022-11-26T00:56:48.939Z,6.55
2022-11-26T00:59:21.159Z,6.59
2022-11-26T01:01:50.847Z,6.64
2022-11-26T01:04:18.524Z,6.60
2022-11-26T01:06:46.736Z,6.67
2022-11-26T01:09:18.523Z,6.64
2022-11-26T01:11:49.749Z,6.64
2022-11-26T01:14:21.757Z,6.64
2022-11-26T01:16:58.223Z,6.62
2022-11-26T01:19:25.932Z,6.66
2022-11-26T01:21:53.689Z,6.61
2022-11-26T01:24:21.366Z,6.66
2022-11-26T01:26:49.106Z,6.65
2022-11-26T01:29:18.016Z,6.69
2022-11-26T01:31:46.511Z,6.65
2022-11-26T01:34:15.731Z,6.63
2022-11-26T01:36:43.503Z,6.60
2022-11-26T01:39:16.445Z,6.59
2022-11-26T01:41:46.576Z,6.58
2022-11-26T01:44:20.171Z,6.59
2022-11-26T01:46:49.462Z,6.60
2022-11-26T01:49:22.346Z,6.60
2022-11-26T01:51:54.610Z,6.56
2022-11-26T01:54:22.716Z,6.58
2022-11-26T01:56:53.136Z,6.62
2022-11-26T01:59:24.578Z,6.61
2022-11-26T02:01:53.472Z,6.58
2022-11-26T02:04:27.627Z,6.55
2022-11-26T02:06:57.454Z,6.60
2022-11-26T02:09:27.124Z,6.59
2022-11-26T02:11:55.446Z,6.64
2022-11-26T02:14:26.653Z,6.64
2022-11-26T02:17:13.402Z,6.66
2022-11-26T02:20:17.758Z,6.67
2022-11-26T02:23:13.915Z,6.68
2022-11-26T02:26:13.869Z,6.68
2022-11-26T02:29:04.150Z,6.80
2022-11-26T02:31:40.133Z,6.83
2022-11-26T02:34:15.372Z,6.83
2022-11-26T02:36:51.022Z,6.84
2022-11-26T02:39:21.384Z,6.85
2022-11-26T02:41:51.727Z,6.85
2022-11-26T02:44:23.154Z,6.84
2022-11-26T02:46:56.037Z,6.83
2022-11-26T02:49:24.139Z,6.85
2022-11-26T02:51:55.681Z,6.81
2022-11-26T02:54:25.644Z,6.79
2022-11-26T02:56:54.418Z,6.79
2022-11-26T02:59:22.524Z,6.76
2022-11-26T03:01:58.590Z,6.76
2022-11-26T03:04:34.494Z,6.78
2022-11-26T03:07:07.235Z,6.72
2022-11-26T03:09:42.923Z,6.72
2022-11-26T03:12:10.708Z,6.80
2022-11-26T03:14:38.742Z,6.79
2022-11-26T03:17:08.023Z,6.74
2022-11-26T03:19:35.905Z,6.74
2022-11-26T03:22:03.810Z,6.69
2022-11-26T03:24:32.085Z,6.69
2022-11-26T03:26:59.960Z,6.69
2022-11-26T03:29:27.911Z,6.62
2022-11-26T03:31:56.107Z,6.55
2022-11-26T03:34:25.363Z,6.52
2022-11-26T03:36:53.518Z,6.53
2022-11-26T03:39:21.328Z,6.55
2022-11-26T03:41:49.166Z,6.58
2022-11-26T03:44:17.015Z,6.62
2022-11-26T03:46:44.788Z,6.61
2022-11-26T03:49:12.429Z,6.60
2022-11-26T03:51:41.484Z,6.58
2022-11-26T03:54:09.282Z,6.47
2022-11-26T03:56:37.000Z,6.47
2022-11-26T03:59:05.049Z,6.44
2022-11-26T04:01:32.880Z,6.40
2022-11-26T04:04:00.613Z,6.41
2022-11-26T04:06:28.311Z,6.46
2022-11-26T04:08:57.579Z,6.49
2022-11-26T04:11:25.298Z,6.59
2022-11-26T04:13:53.010Z,6.59
2022-11-26T04:16:21.389Z,6.62
2022-11-26T04:18:49.294Z,6.59
2022-11-26T04:21:17.076Z,6.66
2022-11-26T04:23:44.985Z,6.67
2022-11-26T04:26:14.032Z,6.65
2022-11-26T04:28:41.785Z,6.63
2022-11-26T04:31:09.451Z,6.66
2022-11-26T04:33:37.428Z,6.58
2022-11-26T04:36:05.715Z,6.57
2022-11-26T04:38:33.443Z,6.55
2022-11-26T04:41:01.080Z,6.58
2022-11-26T04:43:30.091Z,6.53
2022-11-26T04:45:57.856Z,6.55
2022-11-26T04:48:25.560Z,6.56
2022-11-26T04:50:54.545Z,6.56
2022-11-26T04:53:22.724Z,6.52
2022-11-26T04:55:51.582Z,6.50
2022-11-26T04:58:20.186Z,6.59
2022-11-26T05:00:51.330Z,6.54
2022-11-26T05:03:19.385Z,6.63
2022-11-26T05:05:47.769Z,6.53
2022-11-26T05:08:16.053Z,6.62
2022-11-26T05:10:43.688Z,6.62
2022-11-26T05:13:11.673Z,6.65
2022-11-26T05:15:39.545Z,6.64
2022-11-26T05:18:08.542Z,6.61
2022-11-26T05:20:36.198Z,6.58
2022-11-26T05:23:03.853Z,6.56
2022-11-26T05:25:31.515Z,6.59
2022-11-26T05:27:59.155Z,6.54
2022-11-26T05:30:26.907Z,6.52
2022-11-26T05:32:54.499Z,6.48
2022-11-26T05:35:23.785Z,6.45
2022-11-26T05:37:51.477Z,6.50
2022-11-26T05:40:19.342Z,6.59
2022-11-26T05:42:47.038Z,6.60
2022-11-26T05:45:15.747Z,6.59
2022-11-26T05:47:43.482Z,6.50
2022-11-26T05:50:11.886Z,6.51
2022-11-26T05:52:40.888Z,6.51
2022-11-26T05:55:10.174Z,6.49
2022-11-26T05:57:38.428Z,6.40
2022-11-26T06:00:07.833Z,6.34
2022-11-26T06:02:35.547Z,6.31
2022-11-26T06:05:03.703Z,6.28
2022-11-26T06:07:31.463Z,6.23
2022-11-26T06:10:00.533Z,6.21
2022-11-26T06:12:28.515Z,6.25
2022-11-26T06:14:56.141Z,6.24
2022-11-26T06:17:23.885Z,6.27
2022-11-26T06:19:52.352Z,6.29
2022-11-26T06:22:22.955Z,6.32
2022-11-26T06:24:50.636Z,6.36
2022-11-26T06:27:19.741Z,6.31
2022-11-26T06:29:47.535Z,6.35
2022-11-26T06:32:15.138Z,6.41
2022-11-26T06:34:44.182Z,6.46
2022-11-26T06:37:12.453Z,6.47
2022-11-26T06:39:40.074Z,6.46
2022-11-26T06:42:07.772Z,6.45
2022-11-26T06:44:37.901Z,6.48
2022-11-26T06:47:05.929Z,6.51
2022-11-26T06:49:33.690Z,6.59
2022-11-26T06:52:01.321Z,6.57
2022-11-26T06:54:29.123Z,6.58
2022-11-26T06:56:56.762Z,6.53
2022-11-26T06:59:24.494Z,6.52
2022-11-26T07:01:53.666Z,6.56
2022-11-26T07:04:21.459Z,6.59
2022-11-26T07:06:49.546Z,6.63
2022-11-26T07:09:17.302Z,6.70
2022-11-26T07:11:45.011Z,6.71
2022-11-26T07:14:12.719Z,6.71
2022-11-26T07:16:40.488Z,6.76
2022-11-26T07:19:14.085Z,6.77
2022-11-26T07:21:41.868Z,6.80
2022-11-26T07:24:09.712Z,6.78
2022-11-26T07:26:37.470Z,6.70
2022-11-26T07:29:05.442Z,6.70
2022-11-26T07:31:33.135Z,6.70
2022-11-26T07:34:00.780Z,6.72
2022-11-26T07:36:31.192Z,6.73
2022-11-26T07:39:01.667Z,6.71
2022-11-26T07:41:30.622Z,6.67
2022-11-26T07:43:58.250Z,6.62
2022-11-26T07:46:27.598Z,6.65
2022-11-26T07:48:57.287Z,6.66
2022-11-26T07:51:26.650Z,6.69
2022-11-26T07:53:56.502Z,6.74
2022-11-26T07:56:24.204Z,6.74
2022-11-26T07:58:51.910Z,6.77
2022-11-26T08:01:21.551Z,7.17
2022-11-26T08:03:51.760Z,7.24
2022-11-26T08:06:21.515Z,7.34
2022-11-26T08:08:49.813Z,7.45
2022-11-26T08:11:20.698Z,7.31
2022-11-26T08:13:49.299Z,7.28
2022-11-26T08:16:17.442Z,7.26
2022-11-26T08:18:45.219Z,7.18
2022-11-26T08:21:12.846Z,7.23
2022-11-26T08:23:41.035Z,7.23
2022-11-26T08:26:33.028Z,7.17
2022-11-26T08:29:00.052Z,7.13
2022-11-26T08:31:28.729Z,7.18
2022-11-26T08:33:58.131Z,7.24
2022-11-26T08:36:26.094Z,7.20
2022-11-26T08:38:53.755Z,7.25
2022-11-26T08:41:21.575Z,7.16
2022-11-26T08:44:07.222Z,7.21
2022-11-26T08:46:37.343Z,7.15
2022-11-26T08:49:05.568Z,7.14
2022-11-26T08:51:33.227Z,7.18
2022-11-26T08:54:00.896Z,7.21
2022-11-26T08:56:28.604Z,7.15
2022-11-26T08:58:56.344Z,7.16
2022-11-26T09:01:26.248Z,7.16
2022-11-26T09:03:57.677Z,7.22
2022-11-26T09:06:27.019Z,7.28
2022-11-26T09:09:12.708Z,7.22
2022-11-26T09:11:42.826Z,7.21
2022-11-26T09:14:11.700Z,7.24
2022-11-26T09:16:40.088Z,7.31
2022-11-26T09:19:09.456Z,7.30
2022-11-26T09:21:37.610Z,7.28
2022-11-26T09:24:05.901Z,7.34
2022-11-26T09:26:34.266Z,7.30
2022-11-26T09:29:02.563Z,7.32
2022-11-26T09:31:30.934Z,7.36
2022-11-26T09:33:59.990Z,7.40
2022-11-26T09:36:29.199Z,7.47
2022-11-26T09:38:57.819Z,7.45
2022-11-26T09:41:39.137Z,7.51
2022-11-26T09:44:21.000Z,7.45
2022-11-26T09:47:11.589Z,7.44
2022-11-26T09:49:50.023Z,7.31
2022-11-26T09:52:22.149Z,7.25
2022-11-26T09:54:55.405Z,7.20
2022-11-26T09:57:30.736Z,7.08
2022-11-26T09:59:58.391Z,7.13
2022-11-26T10:02:26.815Z,7.18
2022-11-26T10:04:54.868Z,7.11
2022-11-26T10:07:47.990Z,7.17
2022-11-26T10:10:20.177Z,7.21
2022-11-26T10:13:17.863Z,7.20
2022-11-26T10:15:56.533Z,7.24
2022-11-26T10:18:35.350Z,7.25
2022-11-26T10:21:16.608Z,7.20
2022-11-26T10:23:53.472Z,7.31
2022-11-26T10:26:26.626Z,7.35
2022-11-26T10:29:05.656Z,7.30
2022-11-26T10:31:34.597Z,7.18
2022-11-26T10:34:05.890Z,7.18
2022-11-26T10:36:36.941Z,7.18
2022-11-26T10:39:07.490Z,7.14
2022-11-26T10:41:37.949Z,7.21
2022-11-26T10:44:31.871Z,7.38
2022-11-26T10:47:00.254Z,7.36
2022-11-26T10:49:29.683Z,7.44
2022-11-26T10:51:59.776Z,7.50
2022-11-26T10:54:33.310Z,7.36
2022-11-26T10:57:05.708Z,7.27
2022-11-26T10:59:40.577Z,7.26
2022-11-26T11:02:27.401Z,7.41
2022-11-26T11:04:57.916Z,7.37
2022-11-26T11:07:30.682Z,7.47
2022-11-26T11:10:06.380Z,7.50
2022-11-26T11:12:35.488Z,7.48
2022-11-26T11:15:23.068Z,7.40
2022-11-26T11:17:57.816Z,7.51
2022-11-26T11:20:32.068Z,7.62
2022-11-26T11:23:06.582Z,7.78
2022-11-26T11:25:37.201Z,7.80
2022-11-26T11:28:12.274Z,7.63
2022-11-26T11:30:42.978Z,7.75
2022-11-26T11:33:17.336Z,7.78
2022-11-26T11:35:45.283Z,7.75
2022-11-26T11:38:24.570Z,7.65
2022-11-26T11:40:54.211Z,7.66
2022-11-26T11:43:24.131Z,7.71
2022-11-26T11:46:02.387Z,7.71
2022-11-26T11:48:43.432Z,7.65
2022-11-26T11:51:25.105Z,7.53
2022-11-26T11:54:03.272Z,7.51
2022-11-26T11:56:39.678Z,7.47
2022-11-26T12:00:10.764Z,7.48
2022-11-26T12:03:01.116Z,7.53
2022-11-26T12:05:57.106Z,7.50
2022-11-26T12:08:34.332Z,7.47
2022-11-26T12:11:20.355Z,7.46
2022-11-26T12:13:54.282Z,7.53
2022-11-26T12:16:26.075Z,7.56
2022-11-26T12:19:00.486Z,7.55
2022-11-26T12:21:35.963Z,7.42
2022-11-26T12:24:09.001Z,7.38
2022-11-26T12:26:41.368Z,7.41
2022-11-26T12:29:17.336Z,7.31
2022-11-26T12:31:49.740Z,7.38
2022-11-26T12:34:26.741Z,7.40
2022-11-26T12:36:59.484Z,7.45
2022-11-26T12:39:39.252Z,7.60
2022-11-26T12:42:14.112Z,7.42
2022-11-26T12:44:46.250Z,7.42
2022-11-26T12:47:23.293Z,7.46
2022-11-26T12:50:03.464Z,7.45
2022-11-26T12:52:39.608Z,7.55
2022-11-26T12:55:18.123Z,7.60
2022-11-26T12:57:52.965Z,7.74
2022-11-26T13:00:30.137Z,7.78
2022-11-26T13:03:00.629Z,7.83
2022-11-26T13:05:34.122Z,7.87
2022-11-26T13:08:26.307Z,7.88
2022-11-26T13:11:10.437Z,7.82
2022-11-26T13:13:46.676Z,7.81
2022-11-26T13:16:24.872Z,7.72
2022-11-26T13:18:56.692Z,7.66
2022-11-26T13:21:42.585Z,7.73
2022-11-26T13:24:26.474Z,7.71
2022-11-26T13:27:26.651Z,7.76
2022-11-26T13:30:14.817Z,7.64
2022-11-26T13:33:06.541Z,7.62
2022-11-26T13:35:57.077Z,7.62
2022-11-26T13:38:34.308Z,7.62
2022-11-26T13:41:28.813Z,7.53
2022-11-26T13:44:20.348Z,7.51
2022-11-26T13:46:50.892Z,7.50
2022-11-26T13:49:25.047Z,7.49
2022-11-26T13:51:57.857Z,7.56
2022-11-26T13:54:29.648Z,7.59
2022-11-26T13:57:02.493Z,7.57
2022-11-26T13:59:31.585Z,7.60
2022-11-26T14:01:59.652Z,7.62
2022-11-26T14:04:54.911Z,7.61
2022-11-26T14:07:22.822Z,7.56
2022-11-26T14:09:54.235Z,7.54
2022-11-26T14:12:23.424Z,7.57
2022-11-26T14:14:52.283Z,7.46
2022-11-26T14:17:25.420Z,7.46
2022-11-26T14:20:09.098Z,7.52
2022-11-26T14:22:38.057Z,7.53
2022-11-26T14:25:09.277Z,7.48
2022-11-26T14:27:40.555Z,7.38
2022-11-26T14:30:24.240Z,7.32
2022-11-26T14:33:06.393Z,7.32
2022-11-26T14:35:37.362Z,7.26
2022-11-26T14:38:07.315Z,7.25
2022-11-26T14:40:36.584Z,7.34
2022-11-26T14:43:09.096Z,7.36
2022-11-26T14:45:37.338Z,7.36
2022-11-26T14:48:06.429Z,7.29
2022-11-26T14:50:37.797Z,7.23
2022-11-26T14:53:08.315Z,7.19
2022-11-26T14:55:36.157Z,7.23
2022-11-26T14:58:09.562Z,7.13
2022-11-26T15:00:38.006Z,6.98
2022-11-26T15:03:21.071Z,7.03
2022-11-26T15:05:50.246Z,6.91
2022-11-26T15:08:20.273Z,6.99
2022-11-26T15:10:52.988Z,7.08
2022-11-26T15:13:27.282Z,7.07
2022-11-26T15:15:56.587Z,7.03
2022-11-26T15:18:31.014Z,7.02
2022-11-26T15:21:02.406Z,6.92
2022-11-26T15:23:32.962Z,6.94
2022-11-26T15:26:01.255Z,6.91
2022-11-26T15:28:29.898Z,6.88
2022-11-26T15:30:59.732Z,6.89
2022-11-26T15:33:29.242Z,6.79
2022-11-26T15:35:57.897Z,6.84
2022-11-26T15:38:28.595Z,6.79
2022-11-26T15:40:59.166Z,6.86
2022-11-26T15:43:32.178Z,6.76
2022-11-26T15:46:03.853Z,6.74
2022-11-26T15:48:54.006Z,6.72
2022-11-26T15:51:30.703Z,6.76
2022-11-26T15:54:04.131Z,6.69
2022-11-26T15:56:35.484Z,6.61
2022-11-26T15:59:06.900Z,6.61
2022-11-26T16:01:37.487Z,6.65
2022-11-26T16:04:06.498Z,6.69
2022-11-26T16:06:36.170Z,6.71
2022-11-26T16:09:08.360Z,6.77
2022-11-26T16:11:37.336Z,6.79
2022-11-26T16:14:33.808Z,6.79
2022-11-26T16:17:08.340Z,6.79
2022-11-26T16:19:37.765Z,6.74
2022-11-26T16:22:07.367Z,6.75
2022-11-26T16:24:39.125Z,6.76
2022-11-26T16:27:24.724Z,6.77
2022-11-26T16:29:52.460Z,6.75
2022-11-26T16:32:20.750Z,6.74
2022-11-26T16:34:48.442Z,6.76
2022-11-26T16:37:21.091Z,6.78
2022-11-26T16:39:51.477Z,6.71
2022-11-26T16:42:20.950Z,6.59
2022-11-26T16:44:49.617Z,6.61
2022-11-26T16:47:22.758Z,6.55
2022-11-26T16:49:50.486Z,6.53
2022-11-26T16:52:20.141Z,6.58
2022-11-26T16:54:48.353Z,6.57
2022-11-26T16:57:19.808Z,6.65
2022-11-26T16:59:51.099Z,6.66
2022-11-26T17:02:20.031Z,6.70
2022-11-26T17:04:48.486Z,6.73
2022-11-26T17:07:20.356Z,6.75
2022-11-26T17:09:48.504Z,6.68
2022-11-26T17:12:20.334Z,6.72
2022-11-26T17:14:48.628Z,6.61
2022-11-26T17:17:23.608Z,6.70
2022-11-26T17:19:52.778Z,6.70
2022-11-26T17:22:20.642Z,6.73
2022-11-26T17:24:48.343Z,6.76
2022-11-26T17:27:19.544Z,6.78
2022-11-26T17:29:48.287Z,6.76
2022-11-26T17:32:19.037Z,6.70
2022-11-26T17:34:47.749Z,6.55
2022-11-26T17:37:18.314Z,6.65
2022-11-26T17:39:46.267Z,6.61
2022-11-26T17:42:13.967Z,6.60
2022-11-26T17:44:43.001Z,6.55
2022-11-26T17:47:17.932Z,6.63
2022-11-26T17:49:46.722Z,6.61
2022-11-26T17:52:14.561Z,6.49
2022-11-26T17:54:42.685Z,6.49
2022-11-26T17:57:10.658Z,6.58
2022-11-26T17:59:38.808Z,6.51
2022-11-26T18:02:08.514Z,6.57
2022-11-26T18:04:36.905Z,6.56
2022-11-26T18:07:08.278Z,6.58
2022-11-26T18:09:36.345Z,6.52
2022-11-26T18:12:05.956Z,6.59
2022-11-26T18:14:35.520Z,6.45
2022-11-26T18:17:04.332Z,6.44
2022-11-26T18:19:33.558Z,6.48
2022-11-26T18:22:01.267Z,6.47
2022-11-26T18:24:29.446Z,6.55
2022-11-26T18:26:57.146Z,6.55
2022-11-26T18:29:25.249Z,6.47
2022-11-26T18:31:53.181Z,6.49
2022-11-26T18:34:21.157Z,6.55
2022-11-26T18:36:53.721Z,6.52
2022-11-26T18:39:22.559Z,6.49
2022-11-26T18:41:50.251Z,6.50
2022-11-26T18:44:18.053Z,6.48
2022-11-26T18:46:45.858Z,6.54
2022-11-26T18:49:13.578Z,6.52
2022-11-26T18:51:41.866Z,6.48
2022-11-26T18:54:10.936Z,6.39
2022-11-26T18:56:38.599Z,6.35
2022-11-26T18:59:06.297Z,6.33
2022-11-26T19:01:34.076Z,6.35
2022-11-26T19:04:01.801Z,6.32
2022-11-26T19:06:31.624Z,6.31
2022-11-26T19:09:01.359Z,6.29
2022-11-26T19:11:30.389Z,6.23
2022-11-26T19:13:59.080Z,6.22
2022-11-26T19:16:28.622Z,6.20
2022-11-26T19:18:56.381Z,6.13
2022-11-26T19:21:26.482Z,6.06
2022-11-26T19:23:55.431Z,6.04
2022-11-26T19:26:23.736Z,6.05
2022-11-26T19:28:53.275Z,6.04
2022-11-26T19:31:23.052Z,6.01
2022-11-26T19:33:54.884Z,5.95
2022-11-26T19:36:23.250Z,5.89
2022-11-26T19:38:55.792Z,5.88
2022-11-26T19:41:25.743Z,5.87
2022-11-26T19:43:55.743Z,5.87
2022-11-26T19:46:25.543Z,5.90
2022-11-26T19:48:55.465Z,5.77
2022-11-26T19:51:25.070Z,5.68
2022-11-26T19:53:54.677Z,5.64
2022-11-26T19:56:24.578Z,5.65
2022-11-26T19:58:53.768Z,5.52
2022-11-26T20:01:23.416Z,5.55
2022-11-26T20:03:51.436Z,5.40
2022-11-26T20:06:21.315Z,5.46
2022-11-26T20:08:49.921Z,5.48
2022-11-26T20:11:19.111Z,5.37
2022-11-26T20:13:49.119Z,5.53
2022-11-26T20:16:19.184Z,5.45
2022-11-26T20:18:49.385Z,5.39
2022-11-26T20:21:19.702Z,5.37
2022-11-26T20:23:47.810Z,5.38
2022-11-26T20:26:18.246Z,5.38
2022-11-26T20:28:46.866Z,5.39
2022-11-26T20:31:20.519Z,5.39
2022-11-26T20:33:52.982Z,5.35
2022-11-26T20:36:23.098Z,5.37
2022-11-26T20:38:53.604Z,5.36
2022-11-26T20:41:21.790Z,5.29
2022-11-26T20:43:54.962Z,5.25
2022-11-26T20:46:26.592Z,5.19
2022-11-26T20:48:56.264Z,5.15
2022-11-26T20:51:24.000Z,5.16
2022-11-26T20:53:52.879Z,5.15
2022-11-26T20:56:22.570Z,5.15
2022-11-26T20:58:51.304Z,5.15
2022-11-26T21:01:21.499Z,5.15
2022-11-26T21:03:49.444Z,5.09
2022-11-26T21:06:23.341Z,5.04
2022-11-26T21:08:55.115Z,4.97
2022-11-26T21:11:22.805Z,4.92
2022-11-26T21:13:50.601Z,4.89
2022-11-26T21:16:19.188Z,4.81
2022-11-26T21:18:47.145Z,4.69
2022-11-26T21:21:17.227Z,4.68
2022-11-26T21:23:46.582Z,4.60
2022-11-26T21:26:17.804Z,4.58
2022-11-26T21:28:45.713Z,4.54
2022-11-26T21:31:17.075Z,4.47
2022-11-26T21:33:46.217Z,4.46
2022-11-26T21:36:15.542Z,4.43
2022-11-26T21:38:44.011Z,4.39
2022-11-26T21:41:13.744Z,4.39
2022-11-26T21:43:41.638Z,4.33
2022-11-26T21:46:11.430Z,4.31
2022-11-26T21:48:39.233Z,4.28
2022-11-26T21:51:08.237Z,4.23
2022-11-26T21:53:36.525Z,4.22
2022-11-26T21:56:08.234Z,4.13
2022-11-26T21:58:37.757Z,4.09
2022-11-26T22:01:12.584Z,4.07
2022-11-26T22:03:44.002Z,4.03
2022-11-26T22:06:12.566Z,4.09
2022-11-26T22:08:41.194Z,4.11
2022-11-26T22:11:10.691Z,4.08
2022-11-26T22:13:40.264Z,4.06
2022-11-26T22:16:09.474Z,4.05
2022-11-26T22:18:38.014Z,3.96
2022-11-26T22:21:07.828Z,3.91
2022-11-26T22:23:36.516Z,3.91
2022-11-26T22:26:04.272Z,3.91
2022-11-26T22:28:32.019Z,3.81
2022-11-26T22:31:08.336Z,3.84
2022-11-26T22:33:36.052Z,3.79
2022-11-26T22:36:03.931Z,3.68
2022-11-26T22:38:32.363Z,3.71
2022-11-26T22:41:03.566Z,3.78
2022-11-26T22:43:32.022Z,3.79
2022-11-26T22:46:04.173Z,3.80
2022-11-26T22:48:32.149Z,3.81
2022-11-26T22:50:59.792Z,3.66
2022-11-26T22:53:27.845Z,3.67
2022-11-26T22:55:58.702Z,3.66
2022-11-26T22:58:28.026Z,3.61
2022-11-26T23:00:59.825Z,3.54
2022-11-26T23:03:32.817Z,3.45
2022-11-26T23:06:05.015Z,3.41
2022-11-26T23:08:33.416Z,3.40
2022-11-26T23:11:06.280Z,3.36
2022-11-26T23:13:34.253Z,3.33
2022-11-26T23:16:01.985Z,3.36
2022-11-26T23:18:31.101Z,3.37
2022-11-26T23:21:06.763Z,3.26
2022-11-26T23:23:34.666Z,3.26
2022-11-26T23:26:03.534Z,3.22
2022-11-26T23:28:31.762Z,3.10
2022-11-26T23:31:01.588Z,3.04
2022-11-26T23:33:31.028Z,3.07
2022-11-26T23:35:59.280Z,3.11
2022-11-26T23:38:27.243Z,3.07
2022-11-26T23:40:55.806Z,3.01
2022-11-26T23:43:24.320Z,2.91
2022-11-26T23:45:52.421Z,2.97
2022-11-26T23:48:20.115Z,2.85
2022-11-26T23:50:49.302Z,2.79
2022-11-26T23:53:17.245Z,2.71
2022-11-26T23:55:45.381Z,2.67
2022-11-26T23:58:13.277Z,2.67
